sensor_id;sensor_type;location;lat;lon;timestamp;temperature;humidity
37870;DHT22;62531;53.326;-1.368;2022-08-19T01:15:19;23.30;54.40
37870;DHT22;62531;53.326;-1.368;2022-08-19T01:19:29;23.30;54.30
37870;DHT22;62531;53.326;-1.368;2022-08-19T01:23:32;23.20;54.30
37870;DHT22;62531;53.326;-1.368;2022-08-19T01:27:59;23.20;54.30
37870;DHT22;62531;53.326;-1.368;2022-08-19T01:32:01;23.20;54.30
37870;DHT22;62531;53.326;-1.368;2022-08-19T01:36:12;23.20;54.20
37870;DHT22;62531;53.326;-1.368;2022-08-19T01:40:15;23.20;54.20
37870;DHT22;62531;53.326;-1.368;2022-08-19T01:44:16;23.20;54.20
37870;DHT22;62531;53.326;-1.368;2022-08-19T01:48:21;23.20;54.20
37870;DHT22;62531;53.326;-1.368;2022-08-19T01:52:23;23.20;54.20
37870;DHT22;62531;53.326;-1.368;2022-08-19T01:56:25;23.20;54.20
37870;DHT22;62531;53.326;-1.368;2022-08-19T02:00:28;23.20;54.20
37870;DHT22;62531;53.326;-1.368;2022-08-19T02:04:30;23.10;54.10
37870;DHT22;62531;53.326;-1.368;2022-08-19T02:08:33;23.10;54.10
37870;DHT22;62531;53.326;-1.368;2022-08-19T02:12:35;23.10;54.10
37870;DHT22;62531;53.326;-1.368;2022-08-19T02:16:37;23.10;54.00
37870;DHT22;62531;53.326;-1.368;2022-08-19T02:20:39;23.10;54.00
37870;DHT22;62531;53.326;-1.368;2022-08-19T02:24:41;23.10;54.10
37870;DHT22;62531;53.326;-1.368;2022-08-19T02:28:43;23.00;54.00
37870;DHT22;62531;53.326;-1.368;2022-08-19T02:32:44;23.00;53.90
37870;DHT22;62531;53.326;-1.368;2022-08-19T02:36:45;23.00;53.90
37870;DHT22;62531;53.326;-1.368;2022-08-19T02:40:55;23.00;53.90
37870;DHT22;62531;53.326;-1.368;2022-08-19T02:44:56;23.00;53.90
37870;DHT22;62531;53.326;-1.368;2022-08-19T02:49:00;23.00;53.90
37870;DHT22;62531;53.326;-1.368;2022-08-19T02:53:03;23.00;53.90
37870;DHT22;62531;53.326;-1.368;2022-08-19T02:57:05;23.00;53.90
37870;DHT22;62531;53.326;-1.368;2022-08-19T03:01:07;22.90;53.90
37870;DHT22;62531;53.326;-1.368;2022-08-19T03:05:10;22.90;53.80
37870;DHT22;62531;53.326;-1.368;2022-08-19T03:09:11;22.90;53.80
37870;DHT22;62531;53.326;-1.368;2022-08-19T03:13:16;22.90;53.80
37870;DHT22;62531;53.326;-1.368;2022-08-19T03:17:18;22.90;53.80
37870;DHT22;62531;53.326;-1.368;2022-08-19T03:21:23;22.90;53.80
37870;DHT22;62531;53.326;-1.368;2022-08-19T03:25:25;22.90;53.80
37870;DHT22;62531;53.326;-1.368;2022-08-19T03:29:28;22.90;53.80
37870;DHT22;62531;53.326;-1.368;2022-08-19T03:33:30;22.80;53.70
37870;DHT22;62531;53.326;-1.368;2022-08-19T03:37:33;22.80;53.70
37870;DHT22;62531;53.326;-1.368;2022-08-19T03:41:37;22.80;53.70
37870;DHT22;62531;53.326;-1.368;2022-08-19T03:45:39;22.80;53.70
37870;DHT22;62531;53.326;-1.368;2022-08-19T03:49:40;22.80;53.70
37870;DHT22;62531;53.326;-1.368;2022-08-19T03:53:43;22.80;53.70
37870;DHT22;62531;53.326;-1.368;2022-08-19T03:57:45;22.80;53.70
37870;DHT22;62531;53.326;-1.368;2022-08-19T04:01:47;22.70;53.60
37870;DHT22;62531;53.326;-1.368;2022-08-19T04:05:48;22.70;53.60
37870;DHT22;62531;53.326;-1.368;2022-08-19T04:09:50;22.70;53.60
37870;DHT22;62531;53.326;-1.368;2022-08-19T04:13:55;22.70;53.60
37870;DHT22;62531;53.326;-1.368;2022-08-19T04:17:57;22.70;53.60
37870;DHT22;62531;53.326;-1.368;2022-08-19T04:21:58;22.70;53.60
37870;DHT22;62531;53.326;-1.368;2022-08-19T04:26:01;22.70;53.60
37870;DHT22;62531;53.326;-1.368;2022-08-19T04:30:03;22.60;53.50
37870;DHT22;62531;53.326;-1.368;2022-08-19T04:34:07;22.70;53.60
37870;DHT22;62531;53.326;-1.368;2022-08-19T04:38:09;22.60;53.50
37870;DHT22;62531;53.326;-1.368;2022-08-19T04:42:11;22.60;53.50
37870;DHT22;62531;53.326;-1.368;2022-08-19T04:46:32;22.60;53.50
37870;DHT22;62531;53.326;-1.368;2022-08-19T04:50:34;22.60;53.40
37870;DHT22;62531;53.326;-1.368;2022-08-19T04:54:35;22.60;53.40
37870;DHT22;62531;53.326;-1.368;2022-08-19T04:58:37;22.60;53.40
37870;DHT22;62531;53.326;-1.368;2022-08-19T05:02:39;22.50;53.40
37870;DHT22;62531;53.326;-1.368;2022-08-19T05:06:40;22.50;53.40
37870;DHT22;62531;53.326;-1.368;2022-08-19T05:10:41;22.60;53.40
37870;DHT22;62531;53.326;-1.368;2022-08-19T05:14:45;22.50;53.30
37870;DHT22;62531;53.326;-1.368;2022-08-19T05:18:48;22.50;53.30
37870;DHT22;62531;53.326;-1.368;2022-08-19T05:23:11;22.50;53.30
37870;DHT22;62531;53.326;-1.368;2022-08-19T05:27:12;22.50;53.30
37870;DHT22;62531;53.326;-1.368;2022-08-19T05:31:14;22.50;53.30
37870;DHT22;62531;53.326;-1.368;2022-08-19T05:35:15;22.50;53.20
37870;DHT22;62531;53.326;-1.368;2022-08-19T05:39:19;22.50;53.10
37870;DHT22;62531;53.326;-1.368;2022-08-19T05:43:20;22.50;53.10
37870;DHT22;62531;53.326;-1.368;2022-08-19T05:47:22;22.50;53.00
37870;DHT22;62531;53.326;-1.368;2022-08-19T05:51:24;22.60;52.90
37870;DHT22;62531;53.326;-1.368;2022-08-19T05:55:25;22.60;52.90
37870;DHT22;62531;53.326;-1.368;2022-08-19T05:59:27;22.60;52.80
37870;DHT22;62531;53.326;-1.368;2022-08-19T06:03:28;22.60;52.70
37870;DHT22;62531;53.326;-1.368;2022-08-19T06:07:30;22.60;52.70
37870;DHT22;62531;53.326;-1.368;2022-08-19T06:11:35;22.60;52.60
37870;DHT22;62531;53.326;-1.368;2022-08-19T06:15:37;22.60;52.60
37870;DHT22;62531;53.326;-1.368;2022-08-19T06:19:39;22.60;52.50
37870;DHT22;62531;53.326;-1.368;2022-08-19T06:23:41;22.60;52.40
37870;DHT22;62531;53.326;-1.368;2022-08-19T06:27:44;22.60;52.40
37870;DHT22;62531;53.326;-1.368;2022-08-19T06:31:49;22.70;52.40
37870;DHT22;62531;53.326;-1.368;2022-08-19T06:35:51;22.70;52.30
37870;DHT22;62531;53.326;-1.368;2022-08-19T06:39:53;22.70;52.30
37870;DHT22;62531;53.326;-1.368;2022-08-19T06:43:55;22.70;52.40
37870;DHT22;62531;53.326;-1.368;2022-08-19T06:47:57;22.60;52.30
37870;DHT22;62531;53.326;-1.368;2022-08-19T06:51:59;22.60;52.30
37870;DHT22;62531;53.326;-1.368;2022-08-19T06:56:00;22.70;52.40
37870;DHT22;62531;53.326;-1.368;2022-08-19T07:00:04;22.70;52.30
37870;DHT22;62531;53.326;-1.368;2022-08-19T07:04:07;22.60;52.30
37870;DHT22;62531;53.326;-1.368;2022-08-19T07:08:09;22.60;52.30
37870;DHT22;62531;53.326;-1.368;2022-08-19T07:12:12;22.60;52.30
37870;DHT22;62531;53.326;-1.368;2022-08-19T07:16:17;22.60;52.30
37870;DHT22;62531;53.326;-1.368;2022-08-19T07:20:20;22.60;52.30
37870;DHT22;62531;53.326;-1.368;2022-08-19T07:24:23;22.60;52.30
37870;DHT22;62531;53.326;-1.368;2022-08-19T07:28:24;22.50;52.20
37870;DHT22;62531;53.326;-1.368;2022-08-19T07:32:26;22.50;52.20
37870;DHT22;62531;53.326;-1.368;2022-08-19T07:36:28;22.50;52.20
37870;DHT22;62531;53.326;-1.368;2022-08-19T07:40:32;22.50;52.20
37870;DHT22;62531;53.326;-1.368;2022-08-19T07:44:33;22.50;52.20
37870;DHT22;62531;53.326;-1.368;2022-08-19T07:48:35;22.50;52.10
37870;DHT22;62531;53.326;-1.368;2022-08-19T07:52:37;22.50;52.00
37870;DHT22;62531;53.326;-1.368;2022-08-19T07:56:40;22.50;51.90
37870;DHT22;62531;53.326;-1.368;2022-08-19T08:00:43;22.50;51.90
37870;DHT22;62531;53.326;-1.368;2022-08-19T08:04:44;22.50;51.90
37870;DHT22;62531;53.326;-1.368;2022-08-19T08:09:06;22.60;52.00
37870;DHT22;62531;53.326;-1.368;2022-08-19T08:13:13;22.70;52.00
37870;DHT22;62531;53.326;-1.368;2022-08-19T08:17:16;22.80;51.90
37870;DHT22;62531;53.326;-1.368;2022-08-19T08:21:17;22.80;51.90
37870;DHT22;62531;53.326;-1.368;2022-08-19T08:25:23;22.90;51.90
37870;DHT22;62531;53.326;-1.368;2022-08-19T08:29:28;23.00;51.90
37870;DHT22;62531;53.326;-1.368;2022-08-19T08:33:30;23.00;51.80
37870;DHT22;62531;53.326;-1.368;2022-08-19T08:37:33;23.10;51.80
37870;DHT22;62531;53.326;-1.368;2022-08-19T08:46:26;23.20;51.90
37870;DHT22;62531;53.326;-1.368;2022-08-19T08:50:35;23.30;51.80
37870;DHT22;62531;53.326;-1.368;2022-08-19T08:54:45;23.30;52.00
37870;DHT22;62531;53.326;-1.368;2022-08-19T09:02:59;23.30;51.70
37870;DHT22;62531;53.326;-1.368;2022-08-19T09:11:32;23.40;51.10
37870;DHT22;62531;53.326;-1.368;2022-08-19T09:15:45;23.40;50.70
37870;DHT22;62531;53.326;-1.368;2022-08-19T09:20:22;23.40;50.30
37870;DHT22;62531;53.326;-1.368;2022-08-19T09:24:23;23.50;50.20
37870;DHT22;62531;53.326;-1.368;2022-08-19T09:28:25;23.40;47.00
37870;DHT22;62531;53.326;-1.368;2022-08-19T09:32:27;23.40;49.80
37870;DHT22;62531;53.326;-1.368;2022-08-19T09:36:28;23.50;49.20
37870;DHT22;62531;53.326;-1.368;2022-08-19T09:40:30;23.60;49.10
37870;DHT22;62531;53.326;-1.368;2022-08-19T09:44:32;23.60;49.40
37870;DHT22;62531;53.326;-1.368;2022-08-19T09:48:35;23.70;48.60
37870;DHT22;62531;53.326;-1.368;2022-08-19T09:52:37;23.80;49.50
37870;DHT22;62531;53.326;-1.368;2022-08-19T09:56:38;23.80;49.00
37870;DHT22;62531;53.326;-1.368;2022-08-19T10:00:39;23.90;49.10
37870;DHT22;62531;53.326;-1.368;2022-08-19T10:04:41;23.90;49.10
37870;DHT22;62531;53.326;-1.368;2022-08-19T10:09:01;23.90;48.40
37870;DHT22;62531;53.326;-1.368;2022-08-19T10:13:05;23.90;48.40
37870;DHT22;62531;53.326;-1.368;2022-08-19T10:17:07;23.90;48.70
37870;DHT22;62531;53.326;-1.368;2022-08-19T10:21:10;23.90;45.20
37870;DHT22;62531;53.326;-1.368;2022-08-19T10:25:12;23.80;47.20
37870;DHT22;62531;53.326;-1.368;2022-08-19T10:29:15;23.80;47.10
37870;DHT22;62531;53.326;-1.368;2022-08-19T10:33:17;23.90;46.90
37870;DHT22;62531;53.326;-1.368;2022-08-19T10:37:18;23.80;47.20
37870;DHT22;62531;53.326;-1.368;2022-08-19T10:41:22;23.80;47.00
37870;DHT22;62531;53.326;-1.368;2022-08-19T10:45:24;23.80;46.90
37870;DHT22;62531;53.326;-1.368;2022-08-19T10:49:26;23.90;46.70
37870;DHT22;62531;53.326;-1.368;2022-08-19T10:53:28;23.90;46.60
37870;DHT22;62531;53.326;-1.368;2022-08-19T10:57:32;23.90;45.80
37870;DHT22;62531;53.326;-1.368;2022-08-19T11:01:35;23.90;47.10
37870;DHT22;62531;53.326;-1.368;2022-08-19T11:05:36;23.90;46.50
37870;DHT22;62531;53.326;-1.368;2022-08-19T11:09:41;24.00;46.20
37870;DHT22;62531;53.326;-1.368;2022-08-19T11:13:43;24.00;45.50
37870;DHT22;62531;53.326;-1.368;2022-08-19T11:17:45;24.00;46.30
37870;DHT22;62531;53.326;-1.368;2022-08-19T11:21:47;24.00;46.40
37870;DHT22;62531;53.326;-1.368;2022-08-19T11:25:49;24.10;46.40
37870;DHT22;62531;53.326;-1.368;2022-08-19T11:29:51;24.10;45.70
37870;DHT22;62531;53.326;-1.368;2022-08-19T11:33:59;24.20;46.70
37870;DHT22;62531;53.326;-1.368;2022-08-19T11:38:00;24.00;44.20
37870;DHT22;62531;53.326;-1.368;2022-08-19T11:42:05;24.00;44.90
37870;DHT22;62531;53.326;-1.368;2022-08-19T11:46:27;24.00;44.80
37870;DHT22;62531;53.326;-1.368;2022-08-19T11:50:30;24.00;44.90
37870;DHT22;62531;53.326;-1.368;2022-08-19T11:54:32;24.00;45.30
37870;DHT22;62531;53.326;-1.368;2022-08-19T11:58:34;24.10;46.10
37870;DHT22;62531;53.326;-1.368;2022-08-19T12:02:37;24.10;45.60
37870;DHT22;62531;53.326;-1.368;2022-08-19T12:06:39;24.20;44.70
37870;DHT22;62531;53.326;-1.368;2022-08-19T12:10:41;24.20;45.40
37870;DHT22;62531;53.326;-1.368;2022-08-19T12:14:43;24.30;45.70
37870;DHT22;62531;53.326;-1.368;2022-08-19T12:18:46;24.30;46.00
37870;DHT22;62531;53.326;-1.368;2022-08-19T12:22:47;24.30;45.90
37870;DHT22;62531;53.326;-1.368;2022-08-19T12:26:49;24.30;45.30
37870;DHT22;62531;53.326;-1.368;2022-08-19T12:30:51;24.40;45.90
37870;DHT22;62531;53.326;-1.368;2022-08-19T12:34:52;24.40;45.70
37870;DHT22;62531;53.326;-1.368;2022-08-19T12:38:53;24.40;45.60
37870;DHT22;62531;53.326;-1.368;2022-08-19T12:42:55;24.30;44.60
37870;DHT22;62531;53.326;-1.368;2022-08-19T12:46:56;24.30;44.60
37870;DHT22;62531;53.326;-1.368;2022-08-19T12:50:58;24.30;45.10
37870;DHT22;62531;53.326;-1.368;2022-08-19T12:54:59;24.30;45.20
37870;DHT22;62531;53.326;-1.368;2022-08-19T12:59:02;24.40;44.90
37870;DHT22;62531;53.326;-1.368;2022-08-19T13:03:03;24.40;45.50
37870;DHT22;62531;53.326;-1.368;2022-08-19T13:07:05;24.40;45.40
37870;DHT22;62531;53.326;-1.368;2022-08-19T13:11:16;24.40;44.40
37870;DHT22;62531;53.326;-1.368;2022-08-19T13:15:20;24.30;43.50
37870;DHT22;62531;53.326;-1.368;2022-08-19T13:19:21;24.00;42.20
37870;DHT22;62531;53.326;-1.368;2022-08-19T13:23:24;23.80;42.50
37870;DHT22;62531;53.326;-1.368;2022-08-19T13:27:25;23.90;42.00
37870;DHT22;62531;53.326;-1.368;2022-08-19T13:31:28;23.80;41.70
37870;DHT22;62531;53.326;-1.368;2022-08-19T13:35:51;23.90;40.90
37870;DHT22;62531;53.326;-1.368;2022-08-19T13:39:55;23.80;41.20
37870;DHT22;62531;53.326;-1.368;2022-08-19T13:43:57;23.80;40.90
37870;DHT22;62531;53.326;-1.368;2022-08-19T13:47:58;23.80;40.80
37870;DHT22;62531;53.326;-1.368;2022-08-19T13:51:59;23.90;41.30
37870;DHT22;62531;53.326;-1.368;2022-08-19T13:56:05;24.00;41.20
37870;DHT22;62531;53.326;-1.368;2022-08-19T14:00:10;23.70;40.50
37870;DHT22;62531;53.326;-1.368;2022-08-19T14:04:11;23.50;40.30
37870;DHT22;62531;53.326;-1.368;2022-08-19T14:08:13;23.30;40.90
37870;DHT22;62531;53.326;-1.368;2022-08-19T14:12:19;23.50;40.90
37870;DHT22;62531;53.326;-1.368;2022-08-19T14:16:20;23.40;40.60
37870;DHT22;62531;53.326;-1.368;2022-08-19T14:20:23;23.50;40.70
37870;DHT22;62531;53.326;-1.368;2022-08-19T14:24:24;23.50;40.60
37870;DHT22;62531;53.326;-1.368;2022-08-19T14:28:25;23.60;40.30
37870;DHT22;62531;53.326;-1.368;2022-08-19T14:32:26;23.30;40.70
37870;DHT22;62531;53.326;-1.368;2022-08-19T14:36:28;23.10;41.60
37870;DHT22;62531;53.326;-1.368;2022-08-19T14:40:29;23.10;41.30
37870;DHT22;62531;53.326;-1.368;2022-08-19T14:44:31;23.30;41.10
37870;DHT22;62531;53.326;-1.368;2022-08-19T14:48:34;23.30;41.20
37870;DHT22;62531;53.326;-1.368;2022-08-19T14:52:37;23.20;41.40
37870;DHT22;62531;53.326;-1.368;2022-08-19T14:56:40;23.00;41.80
37870;DHT22;62531;53.326;-1.368;2022-08-19T15:00:42;22.90;42.00
37870;DHT22;62531;53.326;-1.368;2022-08-19T15:04:43;23.00;42.10
37870;DHT22;62531;53.326;-1.368;2022-08-19T15:08:45;23.10;42.00
37870;DHT22;62531;53.326;-1.368;2022-08-19T15:12:46;23.10;42.00
37870;DHT22;62531;53.326;-1.368;2022-08-19T15:16:48;23.10;41.60
37870;DHT22;62531;53.326;-1.368;2022-08-19T15:20:50;23.20;41.60
37870;DHT22;62531;53.326;-1.368;2022-08-19T15:24:51;23.20;41.40
37870;DHT22;62531;53.326;-1.368;2022-08-19T15:28:55;23.30;41.00
37870;DHT22;62531;53.326;-1.368;2022-08-19T15:32:57;23.30;40.70
37870;DHT22;62531;53.326;-1.368;2022-08-19T15:36:59;23.20;40.50
37870;DHT22;62531;53.326;-1.368;2022-08-19T15:41:01;23.00;41.10
37870;DHT22;62531;53.326;-1.368;2022-08-19T15:45:22;23.20;41.00
37870;DHT22;62531;53.326;-1.368;2022-08-19T15:49:23;23.10;40.90
37870;DHT22;62531;53.326;-1.368;2022-08-19T15:53:24;23.10;41.20
37870;DHT22;62531;53.326;-1.368;2022-08-19T15:57:27;23.10;41.50
37870;DHT22;62531;53.326;-1.368;2022-08-19T16:01:28;23.00;41.40
37870;DHT22;62531;53.326;-1.368;2022-08-19T16:05:29;23.00;41.30
37870;DHT22;62531;53.326;-1.368;2022-08-19T16:09:49;23.00;41.60
37870;DHT22;62531;53.326;-1.368;2022-08-19T16:13:52;23.10;41.30
37870;DHT22;62531;53.326;-1.368;2022-08-19T16:17:55;23.10;41.30
37870;DHT22;62531;53.326;-1.368;2022-08-19T16:21:57;23.00;41.60
37870;DHT22;62531;53.326;-1.368;2022-08-19T16:25:58;23.10;41.40
37870;DHT22;62531;53.326;-1.368;2022-08-19T16:30:00;23.00;41.60
37870;DHT22;62531;53.326;-1.368;2022-08-19T16:34:02;23.10;41.00
37870;DHT22;62531;53.326;-1.368;2022-08-19T16:38:04;23.20;40.50
37870;DHT22;62531;53.326;-1.368;2022-08-19T16:42:07;23.20;40.70
37870;DHT22;62531;53.326;-1.368;2022-08-19T16:46:09;23.30;40.80
37870;DHT22;62531;53.326;-1.368;2022-08-19T16:50:10;23.20;40.90
37870;DHT22;62531;53.326;-1.368;2022-08-19T16:54:12;23.20;40.40
37870;DHT22;62531;53.326;-1.368;2022-08-19T16:58:13;23.30;41.40
37870;DHT22;62531;53.326;-1.368;2022-08-19T17:02:15;23.30;39.60
37870;DHT22;62531;53.326;-1.368;2022-08-19T17:06:20;23.10;39.70
37870;DHT22;62531;53.326;-1.368;2022-08-19T17:10:21;23.30;40.90
37870;DHT22;62531;53.326;-1.368;2022-08-19T17:14:22;23.50;41.10
37870;DHT22;62531;53.326;-1.368;2022-08-19T17:18:24;23.60;41.20
37870;DHT22;62531;53.326;-1.368;2022-08-19T17:22:26;23.60;41.20
37870;DHT22;62531;53.326;-1.368;2022-08-19T17:26:28;23.70;40.70
37870;DHT22;62531;53.326;-1.368;2022-08-19T17:30:30;23.70;41.00
37870;DHT22;62531;53.326;-1.368;2022-08-19T17:34:32;23.70;40.90
37870;DHT22;62531;53.326;-1.368;2022-08-19T17:38:33;23.80;40.80
37870;DHT22;62531;53.326;-1.368;2022-08-19T17:42:35;23.30;39.90
37870;DHT22;62531;53.326;-1.368;2022-08-19T17:46:37;23.10;40.20
37870;DHT22;62531;53.326;-1.368;2022-08-19T17:50:38;23.00;40.70
37870;DHT22;62531;53.326;-1.368;2022-08-19T17:54:41;23.00;41.10
37870;DHT22;62531;53.326;-1.368;2022-08-19T17:58:42;23.00;42.10
37870;DHT22;62531;53.326;-1.368;2022-08-19T18:02:49;23.00;42.70
37870;DHT22;62531;53.326;-1.368;2022-08-19T18:06:51;23.10;43.20
37870;DHT22;62531;53.326;-1.368;2022-08-19T18:10:54;23.20;43.00
37870;DHT22;62531;53.326;-1.368;2022-08-19T18:14:57;23.30;43.00
37870;DHT22;62531;53.326;-1.368;2022-08-19T18:18:58;23.30;43.00
37870;DHT22;62531;53.326;-1.368;2022-08-19T18:22:59;23.30;43.10
37870;DHT22;62531;53.326;-1.368;2022-08-19T18:27:00;23.40;43.10
37870;DHT22;62531;53.326;-1.368;2022-08-19T18:31:04;23.40;43.20
37870;DHT22;62531;53.326;-1.368;2022-08-19T18:35:08;23.40;43.30
37870;DHT22;62531;53.326;-1.368;2022-08-19T18:39:10;23.40;43.40
37870;DHT22;62531;53.326;-1.368;2022-08-19T18:43:30;23.40;43.50
37870;DHT22;62531;53.326;-1.368;2022-08-19T18:47:50;23.40;43.60
37870;DHT22;62531;53.326;-1.368;2022-08-19T18:52:10;23.40;43.80
37870;DHT22;62531;53.326;-1.368;2022-08-19T18:56:14;23.40;44.00
37870;DHT22;62531;53.326;-1.368;2022-08-19T19:00:15;23.40;44.10
37870;DHT22;62531;53.326;-1.368;2022-08-19T19:04:19;23.30;44.10
37870;DHT22;62531;53.326;-1.368;2022-08-19T19:08:20;23.30;44.20
37870;DHT22;62531;53.326;-1.368;2022-08-19T19:12:21;23.30;44.30
37870;DHT22;62531;53.326;-1.368;2022-08-19T19:16:30;23.30;44.30
37870;DHT22;62531;53.326;-1.368;2022-08-19T19:20:32;23.30;44.40
37870;DHT22;62531;53.326;-1.368;2022-08-19T19:24:34;23.30;44.50
37870;DHT22;62531;53.326;-1.368;2022-08-19T19:28:39;23.30;44.60
37870;DHT22;62531;53.326;-1.368;2022-08-19T19:32:45;23.30;44.60
37870;DHT22;62531;53.326;-1.368;2022-08-19T19:36:47;23.20;44.70
37870;DHT22;62531;53.326;-1.368;2022-08-19T19:40:49;23.20;44.80
37870;DHT22;62531;53.326;-1.368;2022-08-19T19:44:53;23.20;45.00
37870;DHT22;62531;53.326;-1.368;2022-08-19T19:48:55;23.20;44.90
37870;DHT22;62531;53.326;-1.368;2022-08-19T19:52:57;23.20;45.00
37870;DHT22;62531;53.326;-1.368;2022-08-19T19:56:58;23.20;45.10
37870;DHT22;62531;53.326;-1.368;2022-08-19T20:01:01;23.20;45.10
37870;DHT22;62531;53.326;-1.368;2022-08-19T20:05:03;23.20;45.10
37870;DHT22;62531;53.326;-1.368;2022-08-19T20:09:05;23.20;45.10
37870;DHT22;62531;53.326;-1.368;2022-08-19T20:13:12;23.20;45.20
37870;DHT22;62531;53.326;-1.368;2022-08-19T20:17:15;23.10;45.20
37870;DHT22;62531;53.326;-1.368;2022-08-19T20:21:17;23.20;45.20
37870;DHT22;62531;53.326;-1.368;2022-08-19T20:25:19;23.20;45.10
37870;DHT22;62531;53.326;-1.368;2022-08-19T20:29:21;23.10;45.10
37870;DHT22;62531;53.326;-1.368;2022-08-19T20:33:22;23.10;45.20
37870;DHT22;62531;53.326;-1.368;2022-08-19T20:37:23;23.10;45.40
37870;DHT22;62531;53.326;-1.368;2022-08-19T20:41:25;23.10;45.60
37870;DHT22;62531;53.326;-1.368;2022-08-19T20:45:26;23.10;45.50
37870;DHT22;62531;53.326;-1.368;2022-08-19T20:49:27;23.10;45.50
37870;DHT22;62531;53.326;-1.368;2022-08-19T20:53:30;23.10;45.60
37870;DHT22;62531;53.326;-1.368;2022-08-19T20:57:31;23.10;45.60
37870;DHT22;62531;53.326;-1.368;2022-08-19T21:01:32;23.10;45.80
37870;DHT22;62531;53.326;-1.368;2022-08-19T21:05:34;23.10;45.70
37870;DHT22;62531;53.326;-1.368;2022-08-19T21:09:35;23.00;45.80
37870;DHT22;62531;53.326;-1.368;2022-08-19T21:13:38;23.00;45.90
37870;DHT22;62531;53.326;-1.368;2022-08-19T21:17:39;23.00;46.00
37870;DHT22;62531;53.326;-1.368;2022-08-19T21:21:40;23.00;46.00
37870;DHT22;62531;53.326;-1.368;2022-08-19T21:25:42;23.00;46.10
37870;DHT22;62531;53.326;-1.368;2022-08-19T21:29:43;23.00;46.20
37870;DHT22;62531;53.326;-1.368;2022-08-19T21:33:45;23.00;46.30
37870;DHT22;62531;53.326;-1.368;2022-08-19T21:37:46;22.90;46.20
37870;DHT22;62531;53.326;-1.368;2022-08-19T21:41:48;23.00;46.30
37870;DHT22;62531;53.326;-1.368;2022-08-19T21:45:49;23.00;46.30
37870;DHT22;62531;53.326;-1.368;2022-08-19T21:49:52;22.90;46.30
37870;DHT22;62531;53.326;-1.368;2022-08-19T21:53:53;22.90;46.30
37870;DHT22;62531;53.326;-1.368;2022-08-19T21:57:55;22.90;46.30
37870;DHT22;62531;53.326;-1.368;2022-08-19T22:01:59;22.90;46.40
37870;DHT22;62531;53.326;-1.368;2022-08-19T22:06:01;22.90;46.40
37870;DHT22;62531;53.326;-1.368;2022-08-19T22:10:05;22.80;46.30
37870;DHT22;62531;53.326;-1.368;2022-08-19T22:14:06;22.90;46.40
37870;DHT22;62531;53.326;-1.368;2022-08-19T22:18:07;22.80;46.40
37870;DHT22;62531;53.326;-1.368;2022-08-19T22:22:09;22.90;46.50
37870;DHT22;62531;53.326;-1.368;2022-08-19T22:26:12;22.80;46.50
37870;DHT22;62531;53.326;-1.368;2022-08-19T22:30:15;22.80;46.50
37870;DHT22;62531;53.326;-1.368;2022-08-19T22:34:16;22.80;46.60
37870;DHT22;62531;53.326;-1.368;2022-08-19T22:38:18;22.80;46.60
37870;DHT22;62531;53.326;-1.368;2022-08-19T22:42:22;22.80;46.60
37870;DHT22;62531;53.326;-1.368;2022-08-19T22:46:25;22.80;46.60
37870;DHT22;62531;53.326;-1.368;2022-08-19T22:50:27;22.70;46.60
37870;DHT22;62531;53.326;-1.368;2022-08-19T22:54:29;22.70;46.70
37870;DHT22;62531;53.326;-1.368;2022-08-19T22:58:30;22.80;46.70
37870;DHT22;62531;53.326;-1.368;2022-08-19T23:02:33;22.70;46.70
37870;DHT22;62531;53.326;-1.368;2022-08-19T23:06:38;22.70;46.80
37870;DHT22;62531;53.326;-1.368;2022-08-19T23:10:40;22.70;46.70
37870;DHT22;62531;53.326;-1.368;2022-08-19T23:14:42;22.70;46.70
37870;DHT22;62531;53.326;-1.368;2022-08-19T23:18:43;22.70;46.70
37870;DHT22;62531;53.326;-1.368;2022-08-19T23:22:46;22.70;46.70
37870;DHT22;62531;53.326;-1.368;2022-08-19T23:26:51;22.60;46.70
37870;DHT22;62531;53.326;-1.368;2022-08-19T23:31:11;22.60;46.70
37870;DHT22;62531;53.326;-1.368;2022-08-19T23:35:12;22.60;46.80
37870;DHT22;62531;53.326;-1.368;2022-08-19T23:39:17;22.60;46.70
37870;DHT22;62531;53.326;-1.368;2022-08-19T23:43:19;22.60;46.70
37870;DHT22;62531;53.326;-1.368;2022-08-19T23:47:20;22.60;47.30
37870;DHT22;62531;53.326;-1.368;2022-08-19T23:51:23;22.50;46.70
37870;DHT22;62531;53.326;-1.368;2022-08-19T23:55:29;22.50;46.80
37870;DHT22;62531;53.326;-1.368;2022-08-19T23:59:33;22.50;46.70
